Tarrants, Missouri
Current Conditions -  °F | °C
As of 2:35 AM on Sunday 26 Oct 2014 (Local Time) from KPPQ Reporting Station
Clear Clear  
Wind Chill: 56°   Ceiling: Unl
Heat Index: 56°   Visibility: 10mi
Dew Point: 39°   Wind: 3mph
Humidity: 55%   Direction: 10°N
Pressure: 30.04"   Gusts: NA
Location:  39.321°N, 91.1912°W
Report Text: KPPQ 260735Z AUTO 01003KT 10SM CLR 13/04 A3004 RMK AO2 T01310041
Loading
Personal Weather Stations






























Interactive Weather Map New forecast layout! Learn more

10-Day Weather Forecast

Advertisements
Track Severe Weather on mobile